sensor_id;sensor_type;location;lat;lon;timestamp;P1;durP1;ratioP1;P2;durP2;ratioP2
33357;SDS011;19717;42.614;23.418;2022-08-19T00:01:29;4.43;;;3.90;;
33357;SDS011;19717;42.614;23.418;2022-08-19T00:03:57;6.10;;;4.00;;
33357;SDS011;19717;42.614;23.418;2022-08-19T00:06:24;5.85;;;4.55;;
33357;SDS011;19717;42.614;23.418;2022-08-19T00:08:50;5.38;;;4.05;;
33357;SDS011;19717;42.614;23.418;2022-08-19T00:11:16;4.97;;;3.88;;
33357;SDS011;19717;42.614;23.418;2022-08-19T00:13:43;5.80;;;4.45;;
33357;SDS011;19717;42.614;23.418;2022-08-19T00:16:10;6.13;;;4.47;;
33357;SDS011;19717;42.614;23.418;2022-08-19T00:18:36;6.20;;;4.38;;
33357;SDS011;19717;42.614;23.418;2022-08-19T00:21:02;6.95;;;4.68;;
33357;SDS011;19717;42.614;23.418;2022-08-19T00:23:33;5.80;;;4.30;;
33357;SDS011;19717;42.614;23.418;2022-08-19T00:26:01;5.93;;;4.55;;
33357;SDS011;19717;42.614;23.418;2022-08-19T00:28:27;5.90;;;4.43;;
33357;SDS011;19717;42.614;23.418;2022-08-19T00:30:53;6.65;;;5.10;;
33357;SDS011;19717;42.614;23.418;2022-08-19T00:33:20;4.97;;;4.10;;
33357;SDS011;19717;42.614;23.418;2022-08-19T00:35:46;7.70;;;4.60;;
33357;SDS011;19717;42.614;23.418;2022-08-19T00:38:12;7.18;;;4.95;;
33357;SDS011;19717;42.614;23.418;2022-08-19T00:40:39;6.78;;;4.63;;
33357;SDS011;19717;42.614;23.418;2022-08-19T00:43:11;7.68;;;5.13;;
33357;SDS011;19717;42.614;23.418;2022-08-19T00:45:38;6.85;;;4.88;;
33357;SDS011;19717;42.614;23.418;2022-08-19T00:48:07;6.20;;;4.63;;
33357;SDS011;19717;42.614;23.418;2022-08-19T00:50:33;6.78;;;4.70;;
33357;SDS011;19717;42.614;23.418;2022-08-19T00:53:00;5.93;;;4.60;;
33357;SDS011;19717;42.614;23.418;2022-08-19T00:55:29;5.75;;;4.38;;
33357;SDS011;19717;42.614;23.418;2022-08-19T00:57:58;6.07;;;4.75;;
33357;SDS011;19717;42.614;23.418;2022-08-19T01:00:26;7.35;;;4.55;;
33357;SDS011;19717;42.614;23.418;2022-08-19T01:02:52;127.18;;;14.15;;
33357;SDS011;19717;42.614;23.418;2022-08-19T01:05:21;24.83;;;7.38;;
33357;SDS011;19717;42.614;23.418;2022-08-19T01:07:48;16.90;;;6.50;;
33357;SDS011;19717;42.614;23.418;2022-08-19T01:10:18;33.30;;;7.18;;
33357;SDS011;19717;42.614;23.418;2022-08-19T01:12:48;17.50;;;5.80;;
33357;SDS011;19717;42.614;23.418;2022-08-19T01:15:17;9.73;;;6.70;;
33357;SDS011;19717;42.614;23.418;2022-08-19T01:17:45;10.50;;;7.30;;
33357;SDS011;19717;42.614;23.418;2022-08-19T01:20:16;11.52;;;7.65;;
33357;SDS011;19717;42.614;23.418;2022-08-19T01:22:44;8.57;;;6.70;;
33357;SDS011;19717;42.614;23.418;2022-08-19T01:25:12;8.60;;;7.07;;
33357;SDS011;19717;42.614;23.418;2022-08-19T01:27:43;9.73;;;7.80;;
33357;SDS011;19717;42.614;23.418;2022-08-19T01:30:14;9.82;;;7.07;;
33357;SDS011;19717;42.614;23.418;2022-08-19T01:32:40;12.40;;;7.35;;
33357;SDS011;19717;42.614;23.418;2022-08-19T01:35:08;9.43;;;7.40;;
33357;SDS011;19717;42.614;23.418;2022-08-19T01:37:45;9.60;;;7.55;;
33357;SDS011;19717;42.614;23.418;2022-08-19T01:40:11;11.85;;;7.40;;
33357;SDS011;19717;42.614;23.418;2022-08-19T01:42:37;8.30;;;7.05;;
33357;SDS011;19717;42.614;23.418;2022-08-19T01:45:03;10.70;;;7.22;;
33357;SDS011;19717;42.614;23.418;2022-08-19T01:47:30;11.23;;;7.00;;
33357;SDS011;19717;42.614;23.418;2022-08-19T01:49:58;73.78;;;9.90;;
33357;SDS011;19717;42.614;23.418;2022-08-19T01:52:24;45.03;;;8.30;;
33357;SDS011;19717;42.614;23.418;2022-08-19T01:54:50;13.73;;;7.38;;
33357;SDS011;19717;42.614;23.418;2022-08-19T01:57:16;10.70;;;7.05;;
33357;SDS011;19717;42.614;23.418;2022-08-19T01:59:42;15.93;;;7.10;;
33357;SDS011;19717;42.614;23.418;2022-08-19T02:02:09;19.92;;;6.03;;
33357;SDS011;19717;42.614;23.418;2022-08-19T02:04:35;22.95;;;7.43;;
33357;SDS011;19717;42.614;23.418;2022-08-19T02:07:06;12.82;;;6.20;;
33357;SDS011;19717;42.614;23.418;2022-08-19T02:09:33;19.67;;;7.45;;
33357;SDS011;19717;42.614;23.418;2022-08-19T02:11:59;35.47;;;8.68;;
33357;SDS011;19717;42.614;23.418;2022-08-19T02:14:25;27.60;;;7.55;;
33357;SDS011;19717;42.614;23.418;2022-08-19T02:16:51;53.35;;;8.90;;
33357;SDS011;19717;42.614;23.418;2022-08-19T02:19:18;16.00;;;5.63;;
33357;SDS011;19717;42.614;23.418;2022-08-19T02:21:44;8.45;;;5.57;;
33357;SDS011;19717;42.614;23.418;2022-08-19T02:24:10;33.42;;;6.80;;
33357;SDS011;19717;42.614;23.418;2022-08-19T02:26:37;22.67;;;5.88;;
33357;SDS011;19717;42.614;23.418;2022-08-19T02:29:03;15.40;;;6.22;;
33357;SDS011;19717;42.614;23.418;2022-08-19T02:31:29;13.02;;;6.78;;
33357;SDS011;19717;42.614;23.418;2022-08-19T02:33:55;33.10;;;7.28;;
33357;SDS011;19717;42.614;23.418;2022-08-19T02:36:22;9.95;;;6.25;;
33357;SDS011;19717;42.614;23.418;2022-08-19T02:38:49;17.90;;;6.80;;
33357;SDS011;19717;42.614;23.418;2022-08-19T02:41:19;9.95;;;5.97;;
33357;SDS011;19717;42.614;23.418;2022-08-19T02:43:46;9.60;;;6.32;;
33357;SDS011;19717;42.614;23.418;2022-08-19T02:46:16;16.08;;;6.82;;
33357;SDS011;19717;42.614;23.418;2022-08-19T02:48:46;29.08;;;7.10;;
33357;SDS011;19717;42.614;23.418;2022-08-19T02:51:15;27.60;;;7.28;;
33357;SDS011;19717;42.614;23.418;2022-08-19T02:53:41;13.57;;;7.38;;
33357;SDS011;19717;42.614;23.418;2022-08-19T02:56:08;14.27;;;6.88;;
33357;SDS011;19717;42.614;23.418;2022-08-19T02:58:34;12.40;;;6.70;;
33357;SDS011;19717;42.614;23.418;2022-08-19T03:01:00;11.38;;;7.20;;
33357;SDS011;19717;42.614;23.418;2022-08-19T03:03:26;47.25;;;6.90;;
33357;SDS011;19717;42.614;23.418;2022-08-19T03:06:02;14.10;;;6.40;;
33357;SDS011;19717;42.614;23.418;2022-08-19T03:08:28;10.07;;;6.50;;
33357;SDS011;19717;42.614;23.418;2022-08-19T03:10:55;9.90;;;6.55;;
33357;SDS011;19717;42.614;23.418;2022-08-19T03:13:21;10.27;;;6.80;;
33357;SDS011;19717;42.614;23.418;2022-08-19T03:15:48;10.38;;;6.82;;
33357;SDS011;19717;42.614;23.418;2022-08-19T03:18:14;11.05;;;6.82;;
33357;SDS011;19717;42.614;23.418;2022-08-19T03:20:45;10.60;;;6.18;;
33357;SDS011;19717;42.614;23.418;2022-08-19T03:23:11;10.10;;;5.68;;
33357;SDS011;19717;42.614;23.418;2022-08-19T03:25:39;8.90;;;6.32;;
33357;SDS011;19717;42.614;23.418;2022-08-19T03:28:08;9.55;;;6.35;;
33357;SDS011;19717;42.614;23.418;2022-08-19T03:30:34;11.20;;;6.50;;
33357;SDS011;19717;42.614;23.418;2022-08-19T03:33:00;9.70;;;6.72;;
33357;SDS011;19717;42.614;23.418;2022-08-19T03:35:27;13.27;;;6.88;;
33357;SDS011;19717;42.614;23.418;2022-08-19T03:37:53;10.18;;;6.32;;
33357;SDS011;19717;42.614;23.418;2022-08-19T03:40:19;8.27;;;6.18;;
33357;SDS011;19717;42.614;23.418;2022-08-19T03:42:45;10.45;;;6.57;;
33357;SDS011;19717;42.614;23.418;2022-08-19T03:45:11;10.40;;;6.22;;
33357;SDS011;19717;42.614;23.418;2022-08-19T03:47:37;11.30;;;7.10;;
33357;SDS011;19717;42.614;23.418;2022-08-19T03:50:06;8.30;;;5.90;;
33357;SDS011;19717;42.614;23.418;2022-08-19T03:52:33;8.68;;;5.85;;
33357;SDS011;19717;42.614;23.418;2022-08-19T03:55:00;10.00;;;6.80;;
33357;SDS011;19717;42.614;23.418;2022-08-19T03:57:27;10.50;;;7.10;;
33357;SDS011;19717;42.614;23.418;2022-08-19T03:59:53;10.20;;;7.68;;
33357;SDS011;19717;42.614;23.418;2022-08-19T04:02:19;16.08;;;7.47;;
33357;SDS011;19717;42.614;23.418;2022-08-19T04:04:45;10.75;;;7.13;;
33357;SDS011;19717;42.614;23.418;2022-08-19T04:07:12;12.10;;;7.40;;
33357;SDS011;19717;42.614;23.418;2022-08-19T04:09:40;10.65;;;6.90;;
33357;SDS011;19717;42.614;23.418;2022-08-19T04:12:07;10.02;;;6.75;;
33357;SDS011;19717;42.614;23.418;2022-08-19T04:14:33;13.55;;;6.40;;
33357;SDS011;19717;42.614;23.418;2022-08-19T04:17:00;9.52;;;6.70;;
33357;SDS011;19717;42.614;23.418;2022-08-19T04:19:28;9.63;;;6.63;;
33357;SDS011;19717;42.614;23.418;2022-08-19T04:21:55;16.92;;;8.00;;
33357;SDS011;19717;42.614;23.418;2022-08-19T04:24:21;10.40;;;7.75;;
33357;SDS011;19717;42.614;23.418;2022-08-19T04:26:48;10.95;;;7.93;;
33357;SDS011;19717;42.614;23.418;2022-08-19T04:29:15;15.10;;;8.40;;
33357;SDS011;19717;42.614;23.418;2022-08-19T04:31:42;13.13;;;7.50;;
33357;SDS011;19717;42.614;23.418;2022-08-19T04:34:10;12.07;;;8.13;;
33357;SDS011;19717;42.614;23.418;2022-08-19T04:36:37;12.40;;;8.02;;
33357;SDS011;19717;42.614;23.418;2022-08-19T04:39:06;11.43;;;7.63;;
33357;SDS011;19717;42.614;23.418;2022-08-19T04:41:32;11.65;;;7.45;;
33357;SDS011;19717;42.614;23.418;2022-08-19T04:44:17;10.02;;;7.10;;
33357;SDS011;19717;42.614;23.418;2022-08-19T04:46:47;9.80;;;6.65;;
33357;SDS011;19717;42.614;23.418;2022-08-19T04:49:13;10.32;;;7.38;;
33357;SDS011;19717;42.614;23.418;2022-08-19T04:51:42;12.30;;;7.15;;
33357;SDS011;19717;42.614;23.418;2022-08-19T04:54:08;9.63;;;7.00;;
33357;SDS011;19717;42.614;23.418;2022-08-19T04:56:35;11.50;;;7.13;;
33357;SDS011;19717;42.614;23.418;2022-08-19T04:59:01;12.10;;;7.35;;
33357;SDS011;19717;42.614;23.418;2022-08-19T05:01:31;9.55;;;7.00;;
33357;SDS011;19717;42.614;23.418;2022-08-19T05:03:58;14.38;;;7.22;;
33357;SDS011;19717;42.614;23.418;2022-08-19T05:06:26;16.23;;;7.32;;
33357;SDS011;19717;42.614;23.418;2022-08-19T05:08:53;11.13;;;6.88;;
33357;SDS011;19717;42.614;23.418;2022-08-19T05:11:20;9.85;;;7.15;;
33357;SDS011;19717;42.614;23.418;2022-08-19T05:13:47;12.88;;;7.07;;
33357;SDS011;19717;42.614;23.418;2022-08-19T05:16:14;13.68;;;7.07;;
33357;SDS011;19717;42.614;23.418;2022-08-19T05:18:41;10.50;;;7.40;;
33357;SDS011;19717;42.614;23.418;2022-08-19T05:21:26;10.88;;;7.22;;
33357;SDS011;19717;42.614;23.418;2022-08-19T05:24:12;10.88;;;6.63;;
33357;SDS011;19717;42.614;23.418;2022-08-19T05:26:39;10.10;;;6.60;;
33357;SDS011;19717;42.614;23.418;2022-08-19T05:29:06;10.77;;;6.55;;
33357;SDS011;19717;42.614;23.418;2022-08-19T05:31:33;8.68;;;6.03;;
33357;SDS011;19717;42.614;23.418;2022-08-19T05:34:00;10.27;;;6.63;;
33357;SDS011;19717;42.614;23.418;2022-08-19T05:36:29;10.73;;;6.30;;
33357;SDS011;19717;42.614;23.418;2022-08-19T05:38:59;9.60;;;6.10;;
33357;SDS011;19717;42.614;23.418;2022-08-19T05:41:25;12.30;;;6.60;;
33357;SDS011;19717;42.614;23.418;2022-08-19T05:43:58;9.88;;;6.28;;
33357;SDS011;19717;42.614;23.418;2022-08-19T05:46:24;10.02;;;6.93;;
33357;SDS011;19717;42.614;23.418;2022-08-19T05:48:50;11.15;;;6.43;;
33357;SDS011;19717;42.614;23.418;2022-08-19T05:51:16;11.20;;;6.20;;
33357;SDS011;19717;42.614;23.418;2022-08-19T05:53:43;11.20;;;6.47;;
33357;SDS011;19717;42.614;23.418;2022-08-19T05:56:14;11.60;;;6.60;;
33357;SDS011;19717;42.614;23.418;2022-08-19T05:58:41;10.55;;;6.40;;
33357;SDS011;19717;42.614;23.418;2022-08-19T06:01:11;11.50;;;6.55;;
33357;SDS011;19717;42.614;23.418;2022-08-19T06:03:38;12.15;;;6.55;;
33357;SDS011;19717;42.614;23.418;2022-08-19T06:06:07;8.25;;;6.10;;
33357;SDS011;19717;42.614;23.418;2022-08-19T06:08:34;6.72;;;5.60;;
33357;SDS011;19717;42.614;23.418;2022-08-19T06:11:14;9.98;;;6.25;;
33357;SDS011;19717;42.614;23.418;2022-08-19T06:13:41;9.32;;;6.13;;
33357;SDS011;19717;42.614;23.418;2022-08-19T06:16:07;9.75;;;6.70;;
33357;SDS011;19717;42.614;23.418;2022-08-19T06:18:33;12.77;;;6.97;;
33357;SDS011;19717;42.614;23.418;2022-08-19T06:20:59;10.07;;;6.43;;
33357;SDS011;19717;42.614;23.418;2022-08-19T06:23:28;10.20;;;6.38;;
33357;SDS011;19717;42.614;23.418;2022-08-19T06:25:55;9.82;;;6.43;;
33357;SDS011;19717;42.614;23.418;2022-08-19T06:28:21;10.25;;;6.40;;
33357;SDS011;19717;42.614;23.418;2022-08-19T06:30:50;11.18;;;6.32;;
33357;SDS011;19717;42.614;23.418;2022-08-19T06:33:16;9.68;;;6.90;;
33357;SDS011;19717;42.614;23.418;2022-08-19T06:35:45;10.32;;;6.90;;
33357;SDS011;19717;42.614;23.418;2022-08-19T06:38:11;13.02;;;6.25;;
33357;SDS011;19717;42.614;23.418;2022-08-19T06:40:37;9.35;;;6.32;;
33357;SDS011;19717;42.614;23.418;2022-08-19T06:43:03;14.02;;;6.10;;
33357;SDS011;19717;42.614;23.418;2022-08-19T06:45:29;8.57;;;5.90;;
33357;SDS011;19717;42.614;23.418;2022-08-19T06:47:56;13.02;;;5.68;;
33357;SDS011;19717;42.614;23.418;2022-08-19T06:50:25;11.60;;;5.93;;
33357;SDS011;19717;42.614;23.418;2022-08-19T06:52:51;13.52;;;6.70;;
33357;SDS011;19717;42.614;23.418;2022-08-19T06:55:19;6.90;;;5.50;;
33357;SDS011;19717;42.614;23.418;2022-08-19T06:57:45;12.50;;;6.00;;
33357;SDS011;19717;42.614;23.418;2022-08-19T07:00:11;11.48;;;5.82;;
33357;SDS011;19717;42.614;23.418;2022-08-19T07:02:41;7.60;;;5.80;;
33357;SDS011;19717;42.614;23.418;2022-08-19T07:05:07;7.60;;;5.68;;
33357;SDS011;19717;42.614;23.418;2022-08-19T07:07:33;7.53;;;5.82;;
33357;SDS011;19717;42.614;23.418;2022-08-19T07:09:59;10.38;;;6.00;;
33357;SDS011;19717;42.614;23.418;2022-08-19T07:12:27;8.63;;;5.93;;
33357;SDS011;19717;42.614;23.418;2022-08-19T07:14:53;8.15;;;5.72;;
33357;SDS011;19717;42.614;23.418;2022-08-19T07:17:19;11.38;;;5.70;;
33357;SDS011;19717;42.614;23.418;2022-08-19T07:19:45;11.27;;;6.07;;
33357;SDS011;19717;42.614;23.418;2022-08-19T07:22:11;9.43;;;5.68;;
33357;SDS011;19717;42.614;23.418;2022-08-19T07:24:38;9.75;;;5.22;;
33357;SDS011;19717;42.614;23.418;2022-08-19T07:27:05;13.98;;;5.40;;
33357;SDS011;19717;42.614;23.418;2022-08-19T07:29:34;9.18;;;6.10;;
33357;SDS011;19717;42.614;23.418;2022-08-19T07:32:01;8.57;;;5.80;;
33357;SDS011;19717;42.614;23.418;2022-08-19T07:34:28;7.13;;;5.20;;
33357;SDS011;19717;42.614;23.418;2022-08-19T07:36:55;10.35;;;5.60;;
33357;SDS011;19717;42.614;23.418;2022-08-19T07:39:23;8.82;;;5.63;;
33357;SDS011;19717;42.614;23.418;2022-08-19T07:41:49;9.20;;;5.32;;
33357;SDS011;19717;42.614;23.418;2022-08-19T07:44:16;10.05;;;5.70;;
33357;SDS011;19717;42.614;23.418;2022-08-19T07:46:43;10.15;;;5.35;;
33357;SDS011;19717;42.614;23.418;2022-08-19T07:49:10;9.07;;;5.30;;
33357;SDS011;19717;42.614;23.418;2022-08-19T07:51:45;9.95;;;5.18;;
33357;SDS011;19717;42.614;23.418;2022-08-19T07:54:11;7.93;;;5.55;;
33357;SDS011;19717;42.614;23.418;2022-08-19T07:56:37;9.23;;;4.88;;
33357;SDS011;19717;42.614;23.418;2022-08-19T07:59:04;7.78;;;5.15;;
33357;SDS011;19717;42.614;23.418;2022-08-19T08:01:30;8.27;;;4.97;;
33357;SDS011;19717;42.614;23.418;2022-08-19T08:03:59;7.90;;;4.95;;
33357;SDS011;19717;42.614;23.418;2022-08-19T08:06:44;6.20;;;4.78;;
33357;SDS011;19717;42.614;23.418;2022-08-19T08:09:30;6.88;;;4.60;;
33357;SDS011;19717;42.614;23.418;2022-08-19T08:11:59;8.82;;;4.60;;
33357;SDS011;19717;42.614;23.418;2022-08-19T08:14:36;7.00;;;4.95;;
33357;SDS011;19717;42.614;23.418;2022-08-19T08:17:03;6.93;;;5.28;;
33357;SDS011;19717;42.614;23.418;2022-08-19T08:19:29;6.40;;;5.07;;
33357;SDS011;19717;42.614;23.418;2022-08-19T08:21:56;5.95;;;5.05;;
33357;SDS011;19717;42.614;23.418;2022-08-19T08:24:23;7.18;;;5.28;;
33357;SDS011;19717;42.614;23.418;2022-08-19T08:26:50;9.65;;;5.35;;
33357;SDS011;19717;42.614;23.418;2022-08-19T08:29:16;7.65;;;4.60;;
33357;SDS011;19717;42.614;23.418;2022-08-19T08:31:44;7.75;;;4.63;;
33357;SDS011;19717;42.614;23.418;2022-08-19T08:34:11;6.38;;;4.38;;
33357;SDS011;19717;42.614;23.418;2022-08-19T08:36:38;6.05;;;4.05;;
33357;SDS011;19717;42.614;23.418;2022-08-19T08:39:09;9.77;;;4.18;;
33357;SDS011;19717;42.614;23.418;2022-08-19T08:41:40;5.10;;;4.25;;
33357;SDS011;19717;42.614;23.418;2022-08-19T08:44:32;7.40;;;4.15;;
33357;SDS011;19717;42.614;23.418;2022-08-19T08:46:56;9.02;;;4.50;;
33357;SDS011;19717;42.614;23.418;2022-08-19T08:51:54;5.97;;;3.90;;
33357;SDS011;19717;42.614;23.418;2022-08-19T08:54:24;5.00;;;3.90;;
33357;SDS011;19717;42.614;23.418;2022-08-19T08:56:53;7.60;;;4.20;;
33357;SDS011;19717;42.614;23.418;2022-08-19T08:59:25;5.38;;;4.40;;
33357;SDS011;19717;42.614;23.418;2022-08-19T09:01:52;5.47;;;4.25;;
33357;SDS011;19717;42.614;23.418;2022-08-19T09:04:18;4.78;;;3.67;;
33357;SDS011;19717;42.614;23.418;2022-08-19T09:06:55;6.65;;;4.20;;
33357;SDS011;19717;42.614;23.418;2022-08-19T09:09:30;6.15;;;4.30;;
33357;SDS011;19717;42.614;23.418;2022-08-19T09:12:12;4.15;;;3.75;;
33357;SDS011;19717;42.614;23.418;2022-08-19T09:17:10;5.18;;;3.85;;
33357;SDS011;19717;42.614;23.418;2022-08-19T09:19:53;4.15;;;3.53;;
33357;SDS011;19717;42.614;23.418;2022-08-19T09:22:20;6.57;;;3.50;;
33357;SDS011;19717;42.614;23.418;2022-08-19T09:24:49;5.22;;;3.83;;
33357;SDS011;19717;42.614;23.418;2022-08-19T09:27:17;5.50;;;4.18;;
33357;SDS011;19717;42.614;23.418;2022-08-19T09:29:43;4.55;;;3.53;;
33357;SDS011;19717;42.614;23.418;2022-08-19T09:32:10;5.57;;;4.30;;
33357;SDS011;19717;42.614;23.418;2022-08-19T09:34:36;7.93;;;3.38;;
33357;SDS011;19717;42.614;23.418;2022-08-19T09:37:02;3.80;;;2.95;;
33357;SDS011;19717;42.614;23.418;2022-08-19T09:39:28;3.20;;;2.88;;
33357;SDS011;19717;42.614;23.418;2022-08-19T09:41:55;5.35;;;3.42;;
33357;SDS011;19717;42.614;23.418;2022-08-19T09:44:22;3.92;;;3.15;;
33357;SDS011;19717;42.614;23.418;2022-08-19T09:46:48;5.35;;;3.20;;
33357;SDS011;19717;42.614;23.418;2022-08-19T09:49:16;3.45;;;3.15;;
33357;SDS011;19717;42.614;23.418;2022-08-19T09:51:42;6.22;;;3.42;;
33357;SDS011;19717;42.614;23.418;2022-08-19T09:54:08;5.00;;;3.63;;
33357;SDS011;19717;42.614;23.418;2022-08-19T09:56:34;4.07;;;3.38;;
33357;SDS011;19717;42.614;23.418;2022-08-19T09:59:01;5.00;;;3.33;;
33357;SDS011;19717;42.614;23.418;2022-08-19T10:01:32;9.90;;;3.80;;
33357;SDS011;19717;42.614;23.418;2022-08-19T10:03:59;7.55;;;4.18;;
33357;SDS011;19717;42.614;23.418;2022-08-19T10:06:27;5.53;;;3.83;;
33357;SDS011;19717;42.614;23.418;2022-08-19T10:08:58;5.72;;;3.78;;
33357;SDS011;19717;42.614;23.418;2022-08-19T10:11:25;5.10;;;3.80;;
33357;SDS011;19717;42.614;23.418;2022-08-19T10:13:51;4.70;;;3.75;;
33357;SDS011;19717;42.614;23.418;2022-08-19T10:16:21;4.43;;;3.90;;
33357;SDS011;19717;42.614;23.418;2022-08-19T10:18:48;6.75;;;3.65;;
33357;SDS011;19717;42.614;23.418;2022-08-19T10:21:25;4.32;;;3.80;;
33357;SDS011;19717;42.614;23.418;2022-08-19T10:23:52;10.23;;;4.30;;
33357;SDS011;19717;42.614;23.418;2022-08-19T10:26:20;5.55;;;4.20;;
33357;SDS011;19717;42.614;23.418;2022-08-19T10:28:47;7.75;;;4.28;;
33357;SDS011;19717;42.614;23.418;2022-08-19T10:31:16;9.85;;;4.18;;
33357;SDS011;19717;42.614;23.418;2022-08-19T10:33:44;6.15;;;4.43;;
33357;SDS011;19717;42.614;23.418;2022-08-19T10:36:18;6.07;;;4.20;;
33357;SDS011;19717;42.614;23.418;2022-08-19T10:38:46;7.40;;;4.22;;
33357;SDS011;19717;42.614;23.418;2022-08-19T10:41:16;5.07;;;3.83;;
33357;SDS011;19717;42.614;23.418;2022-08-19T10:43:42;4.93;;;3.53;;
33357;SDS011;19717;42.614;23.418;2022-08-19T10:46:12;4.00;;;3.50;;
33357;SDS011;19717;42.614;23.418;2022-08-19T10:48:38;4.70;;;3.50;;
33357;SDS011;19717;42.614;23.418;2022-08-19T10:51:05;5.35;;;3.90;;
33357;SDS011;19717;42.614;23.418;2022-08-19T10:53:50;7.07;;;4.40;;
33357;SDS011;19717;42.614;23.418;2022-08-19T10:56:16;8.32;;;4.32;;
33357;SDS011;19717;42.614;23.418;2022-08-19T10:59:01;5.90;;;4.25;;
33357;SDS011;19717;42.614;23.418;2022-08-19T11:01:28;6.53;;;3.75;;
33357;SDS011;19717;42.614;23.418;2022-08-19T11:03:57;5.53;;;3.83;;
33357;SDS011;19717;42.614;23.418;2022-08-19T11:06:23;5.03;;;3.97;;
33357;SDS011;19717;42.614;23.418;2022-08-19T11:08:53;9.85;;;4.47;;
33357;SDS011;19717;42.614;23.418;2022-08-19T11:11:19;5.47;;;4.30;;
33357;SDS011;19717;42.614;23.418;2022-08-19T11:13:48;5.03;;;4.00;;
33357;SDS011;19717;42.614;23.418;2022-08-19T11:16:19;8.18;;;4.20;;
33357;SDS011;19717;42.614;23.418;2022-08-19T11:18:52;5.95;;;3.97;;
33357;SDS011;19717;42.614;23.418;2022-08-19T11:23:49;4.95;;;3.80;;
33357;SDS011;19717;42.614;23.418;2022-08-19T11:26:16;5.90;;;4.00;;
33357;SDS011;19717;42.614;23.418;2022-08-19T11:28:42;5.78;;;3.97;;
33357;SDS011;19717;42.614;23.418;2022-08-19T11:31:09;4.35;;;3.72;;
33357;SDS011;19717;42.614;23.418;2022-08-19T11:33:36;8.88;;;4.22;;
33357;SDS011;19717;42.614;23.418;2022-08-19T11:36:02;8.43;;;4.47;;
33357;SDS011;19717;42.614;23.418;2022-08-19T11:38:28;5.97;;;4.63;;
33357;SDS011;19717;42.614;23.418;2022-08-19T11:40:59;6.60;;;4.00;;
33357;SDS011;19717;42.614;23.418;2022-08-19T11:43:25;5.28;;;4.18;;
33357;SDS011;19717;42.614;23.418;2022-08-19T11:45:52;24.50;;;6.43;;
33357;SDS011;19717;42.614;23.418;2022-08-19T11:48:19;13.95;;;5.20;;
33357;SDS011;19717;42.614;23.418;2022-08-19T11:50:47;5.57;;;4.20;;
33357;SDS011;19717;42.614;23.418;2022-08-19T11:53:13;4.78;;;4.03;;
33357;SDS011;19717;42.614;23.418;2022-08-19T11:55:39;7.70;;;4.70;;
33357;SDS011;19717;42.614;23.418;2022-08-19T11:58:07;6.65;;;4.18;;
33357;SDS011;19717;42.614;23.418;2022-08-19T12:00:34;8.13;;;4.50;;
33357;SDS011;19717;42.614;23.418;2022-08-19T12:03:03;6.88;;;4.50;;
33357;SDS011;19717;42.614;23.418;2022-08-19T12:05:30;11.30;;;4.78;;
33357;SDS011;19717;42.614;23.418;2022-08-19T12:07:56;5.70;;;4.28;;
33357;SDS011;19717;42.614;23.418;2022-08-19T12:10:23;6.28;;;4.10;;
33357;SDS011;19717;42.614;23.418;2022-08-19T12:12:49;5.32;;;4.50;;
33357;SDS011;19717;42.614;23.418;2022-08-19T12:15:15;7.35;;;4.60;;
33357;SDS011;19717;42.614;23.418;2022-08-19T12:17:43;6.95;;;4.72;;
33357;SDS011;19717;42.614;23.418;2022-08-19T12:20:10;7.45;;;4.60;;
33357;SDS011;19717;42.614;23.418;2022-08-19T12:22:36;7.50;;;5.13;;
33357;SDS011;19717;42.614;23.418;2022-08-19T12:25:03;8.73;;;4.43;;
33357;SDS011;19717;42.614;23.418;2022-08-19T12:27:30;7.00;;;5.13;;
33357;SDS011;19717;42.614;23.418;2022-08-19T12:29:56;6.35;;;4.68;;
33357;SDS011;19717;42.614;23.418;2022-08-19T12:32:23;6.47;;;4.55;;
33357;SDS011;19717;42.614;23.418;2022-08-19T12:34:49;6.40;;;5.10;;
33357;SDS011;19717;42.614;23.418;2022-08-19T12:37:15;5.95;;;4.40;;
33357;SDS011;19717;42.614;23.418;2022-08-19T12:39:42;5.78;;;4.43;;
33357;SDS011;19717;42.614;23.418;2022-08-19T12:42:09;5.40;;;4.57;;
33357;SDS011;19717;42.614;23.418;2022-08-19T12:44:36;6.90;;;4.40;;
33357;SDS011;19717;42.614;23.418;2022-08-19T12:47:02;6.38;;;4.00;;
33357;SDS011;19717;42.614;23.418;2022-08-19T12:49:29;7.63;;;5.00;;
33357;SDS011;19717;42.614;23.418;2022-08-19T12:51:58;7.63;;;4.70;;
33357;SDS011;19717;42.614;23.418;2022-08-19T12:54:25;6.03;;;5.18;;
33357;SDS011;19717;42.614;23.418;2022-08-19T12:56:51;8.85;;;5.13;;
33357;SDS011;19717;42.614;23.418;2022-08-19T12:59:17;6.40;;;5.28;;
33357;SDS011;19717;42.614;23.418;2022-08-19T13:01:44;8.57;;;5.10;;
33357;SDS011;19717;42.614;23.418;2022-08-19T13:04:10;7.35;;;5.57;;
33357;SDS011;19717;42.614;23.418;2022-08-19T13:06:36;7.43;;;5.38;;
33357;SDS011;19717;42.614;23.418;2022-08-19T13:09:03;6.57;;;5.20;;
33357;SDS011;19717;42.614;23.418;2022-08-19T13:11:29;10.30;;;5.63;;
33357;SDS011;19717;42.614;23.418;2022-08-19T13:13:59;7.33;;;5.40;;
33357;SDS011;19717;42.614;23.418;2022-08-19T13:16:25;33.83;;;6.28;;
33357;SDS011;19717;42.614;23.418;2022-08-19T13:18:53;7.65;;;5.40;;
33357;SDS011;19717;42.614;23.418;2022-08-19T13:21:20;9.73;;;5.20;;
33357;SDS011;19717;42.614;23.418;2022-08-19T13:23:47;6.22;;;5.20;;
33357;SDS011;19717;42.614;23.418;2022-08-19T13:26:14;9.65;;;4.93;;
33357;SDS011;19717;42.614;23.418;2022-08-19T13:28:40;7.68;;;5.43;;
33357;SDS011;19717;42.614;23.418;2022-08-19T13:31:26;8.02;;;5.15;;
33357;SDS011;19717;42.614;23.418;2022-08-19T13:34:11;7.68;;;5.43;;
33357;SDS011;19717;42.614;23.418;2022-08-19T13:36:37;7.40;;;4.85;;
33357;SDS011;19717;42.614;23.418;2022-08-19T13:39:04;8.05;;;5.32;;
33357;SDS011;19717;42.614;23.418;2022-08-19T13:41:32;6.45;;;5.30;;
33357;SDS011;19717;42.614;23.418;2022-08-19T13:43:58;8.65;;;5.60;;
33357;SDS011;19717;42.614;23.418;2022-08-19T13:46:24;6.80;;;5.13;;
33357;SDS011;19717;42.614;23.418;2022-08-19T13:48:52;10.43;;;5.50;;
33357;SDS011;19717;42.614;23.418;2022-08-19T13:51:18;27.15;;;5.38;;
33357;SDS011;19717;42.614;23.418;2022-08-19T13:53:44;6.60;;;5.60;;
33357;SDS011;19717;42.614;23.418;2022-08-19T13:56:13;6.07;;;5.47;;
33357;SDS011;19717;42.614;23.418;2022-08-19T13:58:39;6.05;;;5.32;;
33357;SDS011;19717;42.614;23.418;2022-08-19T14:01:05;8.70;;;5.22;;
33357;SDS011;19717;42.614;23.418;2022-08-19T14:03:32;11.25;;;5.57;;
33357;SDS011;19717;42.614;23.418;2022-08-19T14:05:59;8.98;;;5.50;;
33357;SDS011;19717;42.614;23.418;2022-08-19T14:08:25;8.25;;;5.40;;
33357;SDS011;19717;42.614;23.418;2022-08-19T14:10:53;10.63;;;5.60;;
33357;SDS011;19717;42.614;23.418;2022-08-19T14:13:20;7.55;;;5.20;;
33357;SDS011;19717;42.614;23.418;2022-08-19T14:15:46;7.20;;;5.13;;
33357;SDS011;19717;42.614;23.418;2022-08-19T14:18:13;11.00;;;5.50;;
33357;SDS011;19717;42.614;23.418;2022-08-19T14:20:40;5.68;;;4.82;;
33357;SDS011;19717;42.614;23.418;2022-08-19T14:23:06;8.82;;;5.25;;
33357;SDS011;19717;42.614;23.418;2022-08-19T14:25:32;8.68;;;4.85;;
33357;SDS011;19717;42.614;23.418;2022-08-19T14:27:59;7.63;;;5.50;;
33357;SDS011;19717;42.614;23.418;2022-08-19T14:30:27;7.95;;;5.45;;
33357;SDS011;19717;42.614;23.418;2022-08-19T14:32:54;7.55;;;5.10;;
33357;SDS011;19717;42.614;23.418;2022-08-19T14:35:21;9.77;;;5.50;;
33357;SDS011;19717;42.614;23.418;2022-08-19T14:37:47;7.15;;;5.22;;
33357;SDS011;19717;42.614;23.418;2022-08-19T14:40:15;5.95;;;5.07;;
33357;SDS011;19717;42.614;23.418;2022-08-19T14:42:41;7.07;;;5.00;;